sensor_id;sensor_type;location;lat;lon;timestamp;temperature;humidity
43810;DHT22;29440;48.208;11.162;2023-07-20T00:01:09;21.70;90.40
43810;DHT22;29440;48.208;11.162;2023-07-20T00:03:35;21.70;90.20
43810;DHT22;29440;48.208;11.162;2023-07-20T00:06:01;21.70;90.10
43810;DHT22;29440;48.208;11.162;2023-07-20T00:08:27;21.60;90.50
43810;DHT22;29440;48.208;11.162;2023-07-20T00:10:53;21.60;90.30
43810;DHT22;29440;48.208;11.162;2023-07-20T00:13:19;21.70;90.40
43810;DHT22;29440;48.208;11.162;2023-07-20T00:15:46;21.60;90.60
43810;DHT22;29440;48.208;11.162;2023-07-20T00:18:12;21.60;90.20
43810;DHT22;29440;48.208;11.162;2023-07-20T00:20:38;21.60;90.30
43810;DHT22;29440;48.208;11.162;2023-07-20T00:23:04;21.80;90.60
43810;DHT22;29440;48.208;11.162;2023-07-20T00:25:30;21.60;90.60
43810;DHT22;29440;48.208;11.162;2023-07-20T00:27:55;21.50;90.30
43810;DHT22;29440;48.208;11.162;2023-07-20T00:30:21;21.50;90.30
43810;DHT22;29440;48.208;11.162;2023-07-20T00:32:47;21.60;90.40
43810;DHT22;29440;48.208;11.162;2023-07-20T00:35:14;21.50;90.50
43810;DHT22;29440;48.208;11.162;2023-07-20T00:37:40;21.50;90.60
43810;DHT22;29440;48.208;11.162;2023-07-20T00:40:06;21.50;90.60
43810;DHT22;29440;48.208;11.162;2023-07-20T00:42:35;21.50;90.20
43810;DHT22;29440;48.208;11.162;2023-07-20T00:45:01;21.50;90.90
43810;DHT22;29440;48.208;11.162;2023-07-20T00:47:27;21.50;90.10
43810;DHT22;29440;48.208;11.162;2023-07-20T00:49:53;21.50;90.70
43810;DHT22;29440;48.208;11.162;2023-07-20T00:52:21;21.40;90.70
43810;DHT22;29440;48.208;11.162;2023-07-20T00:54:48;21.40;90.80
43810;DHT22;29440;48.208;11.162;2023-07-20T00:57:15;21.40;90.80
43810;DHT22;29440;48.208;11.162;2023-07-20T00:59:41;21.40;90.50
43810;DHT22;29440;48.208;11.162;2023-07-20T01:02:07;21.40;90.50
43810;DHT22;29440;48.208;11.162;2023-07-20T01:04:33;21.40;91.00
43810;DHT22;29440;48.208;11.162;2023-07-20T01:07:23;21.40;90.50
43810;DHT22;29440;48.208;11.162;2023-07-20T01:10:05;21.40;91.00
43810;DHT22;29440;48.208;11.162;2023-07-20T01:12:50;21.30;90.70
43810;DHT22;29440;48.208;11.162;2023-07-20T01:15:16;21.30;91.10
43810;DHT22;29440;48.208;11.162;2023-07-20T01:17:42;21.30;91.00
43810;DHT22;29440;48.208;11.162;2023-07-20T01:20:09;21.30;91.00
43810;DHT22;29440;48.208;11.162;2023-07-20T01:28:30;21.20;90.80
43810;DHT22;29440;48.208;11.162;2023-07-20T01:33:42;21.20;90.70
43810;DHT22;29440;48.208;11.162;2023-07-20T01:36:08;21.20;90.90
43810;DHT22;29440;48.208;11.162;2023-07-20T01:38:36;21.10;90.60
43810;DHT22;29440;48.208;11.162;2023-07-20T01:41:03;21.10;90.80
43810;DHT22;29440;48.208;11.162;2023-07-20T01:43:30;21.10;90.70
43810;DHT22;29440;48.208;11.162;2023-07-20T01:45:55;20.90;90.70
43810;DHT22;29440;48.208;11.162;2023-07-20T01:48:21;21.10;90.60
43810;DHT22;29440;48.208;11.162;2023-07-20T01:50:47;20.90;90.70
43810;DHT22;29440;48.208;11.162;2023-07-20T01:53:12;20.90;90.50
43810;DHT22;29440;48.208;11.162;2023-07-20T01:55:38;20.90;90.30
43810;DHT22;29440;48.208;11.162;2023-07-20T01:58:03;20.90;90.40
43810;DHT22;29440;48.208;11.162;2023-07-20T02:00:29;20.90;90.50
43810;DHT22;29440;48.208;11.162;2023-07-20T02:02:55;20.90;90.20
43810;DHT22;29440;48.208;11.162;2023-07-20T02:05:21;20.90;90.30
43810;DHT22;29440;48.208;11.162;2023-07-20T02:07:47;20.80;90.30
43810;DHT22;29440;48.208;11.162;2023-07-20T02:10:13;20.80;90.10
43810;DHT22;29440;48.208;11.162;2023-07-20T02:12:39;20.80;90.00
43810;DHT22;29440;48.208;11.162;2023-07-20T02:15:05;20.80;90.40
43810;DHT22;29440;48.208;11.162;2023-07-20T02:17:30;20.80;90.30
43810;DHT22;29440;48.208;11.162;2023-07-20T02:19:56;20.70;90.00
43810;DHT22;29440;48.208;11.162;2023-07-20T02:22:25;20.80;90.80
43810;DHT22;29440;48.208;11.162;2023-07-20T02:24:51;20.70;90.60
43810;DHT22;29440;48.208;11.162;2023-07-20T02:27:17;20.70;90.50
43810;DHT22;29440;48.208;11.162;2023-07-20T02:29:42;20.70;90.50
43810;DHT22;29440;48.208;11.162;2023-07-20T02:32:08;20.60;90.60
43810;DHT22;29440;48.208;11.162;2023-07-20T02:34:35;20.60;90.70
43810;DHT22;29440;48.208;11.162;2023-07-20T02:37:01;20.50;90.50
43810;DHT22;29440;48.208;11.162;2023-07-20T02:39:30;20.60;90.50
43810;DHT22;29440;48.208;11.162;2023-07-20T02:41:56;20.50;90.60
43810;DHT22;29440;48.208;11.162;2023-07-20T02:44:21;20.40;90.50
43810;DHT22;29440;48.208;11.162;2023-07-20T02:46:47;20.50;90.40
43810;DHT22;29440;48.208;11.162;2023-07-20T02:49:15;20.40;90.60
43810;DHT22;29440;48.208;11.162;2023-07-20T02:51:41;20.40;90.30
43810;DHT22;29440;48.208;11.162;2023-07-20T02:54:06;20.40;90.70
43810;DHT22;29440;48.208;11.162;2023-07-20T02:56:32;20.40;90.90
43810;DHT22;29440;48.208;11.162;2023-07-20T02:58:57;20.40;90.70
43810;DHT22;29440;48.208;11.162;2023-07-20T03:01:23;20.40;90.60
43810;DHT22;29440;48.208;11.162;2023-07-20T03:03:48;20.30;90.70
43810;DHT22;29440;48.208;11.162;2023-07-20T03:06:15;20.30;90.60
43810;DHT22;29440;48.208;11.162;2023-07-20T03:08:42;20.30;90.90
43810;DHT22;29440;48.208;11.162;2023-07-20T03:11:16;20.30;91.00
43810;DHT22;29440;48.208;11.162;2023-07-20T03:13:42;20.30;90.80
43810;DHT22;29440;48.208;11.162;2023-07-20T03:16:12;20.40;91.00
43810;DHT22;29440;48.208;11.162;2023-07-20T03:18:41;20.30;91.20
43810;DHT22;29440;48.208;11.162;2023-07-20T03:21:08;20.40;91.10
43810;DHT22;29440;48.208;11.162;2023-07-20T03:23:34;20.20;91.00
43810;DHT22;29440;48.208;11.162;2023-07-20T03:26:00;20.20;91.00
43810;DHT22;29440;48.208;11.162;2023-07-20T03:28:26;20.30;91.10
43810;DHT22;29440;48.208;11.162;2023-07-20T03:30:56;20.30;91.00
43810;DHT22;29440;48.208;11.162;2023-07-20T03:33:25;20.40;91.10
43810;DHT22;29440;48.208;11.162;2023-07-20T03:35:51;20.30;91.20
43810;DHT22;29440;48.208;11.162;2023-07-20T03:38:16;20.20;91.10
43810;DHT22;29440;48.208;11.162;2023-07-20T03:40:52;20.20;90.90
43810;DHT22;29440;48.208;11.162;2023-07-20T03:43:20;20.30;91.10
43810;DHT22;29440;48.208;11.162;2023-07-20T03:45:46;20.20;91.00
43810;DHT22;29440;48.208;11.162;2023-07-20T03:48:15;20.30;91.40
43810;DHT22;29440;48.208;11.162;2023-07-20T03:50:40;20.20;91.40
43810;DHT22;29440;48.208;11.162;2023-07-20T03:53:06;20.30;91.50
43810;DHT22;29440;48.208;11.162;2023-07-20T03:55:32;20.20;91.50
43810;DHT22;29440;48.208;11.162;2023-07-20T03:57:57;20.20;91.40
43810;DHT22;29440;48.208;11.162;2023-07-20T04:00:23;20.20;91.50
43810;DHT22;29440;48.208;11.162;2023-07-20T04:02:49;20.20;91.40
43810;DHT22;29440;48.208;11.162;2023-07-20T04:05:14;20.10;91.50
43810;DHT22;29440;48.208;11.162;2023-07-20T04:07:40;20.20;91.40
43810;DHT22;29440;48.208;11.162;2023-07-20T04:10:06;20.10;91.30
43810;DHT22;29440;48.208;11.162;2023-07-20T04:12:31;20.10;91.40
43810;DHT22;29440;48.208;11.162;2023-07-20T04:14:57;20.10;91.10
43810;DHT22;29440;48.208;11.162;2023-07-20T04:17:23;20.10;91.40
43810;DHT22;29440;48.208;11.162;2023-07-20T04:19:48;20.10;91.70
43810;DHT22;29440;48.208;11.162;2023-07-20T04:22:14;20.10;91.50
43810;DHT22;29440;48.208;11.162;2023-07-20T04:24:42;20.10;91.40
43810;DHT22;29440;48.208;11.162;2023-07-20T04:27:08;20.00;90.80
43810;DHT22;29440;48.208;11.162;2023-07-20T04:29:33;20.00;90.50
43810;DHT22;29440;48.208;11.162;2023-07-20T04:31:59;20.10;90.50
43810;DHT22;29440;48.208;11.162;2023-07-20T04:34:24;20.00;90.20
43810;DHT22;29440;48.208;11.162;2023-07-20T04:36:50;20.10;90.10
43810;DHT22;29440;48.208;11.162;2023-07-20T04:39:15;19.90;90.10
43810;DHT22;29440;48.208;11.162;2023-07-20T04:41:41;19.90;90.20
43810;DHT22;29440;48.208;11.162;2023-07-20T04:44:06;19.90;90.00
43810;DHT22;29440;48.208;11.162;2023-07-20T04:46:32;19.90;89.30
43810;DHT22;29440;48.208;11.162;2023-07-20T04:48:57;19.90;89.40
43810;DHT22;29440;48.208;11.162;2023-07-20T04:51:23;19.80;89.30
43810;DHT22;29440;48.208;11.162;2023-07-20T04:53:49;19.80;89.70
43810;DHT22;29440;48.208;11.162;2023-07-20T04:56:15;19.80;89.00
43810;DHT22;29440;48.208;11.162;2023-07-20T04:58:40;19.80;89.60
43810;DHT22;29440;48.208;11.162;2023-07-20T05:01:07;19.80;89.70
43810;DHT22;29440;48.208;11.162;2023-07-20T05:03:33;19.80;88.80
43810;DHT22;29440;48.208;11.162;2023-07-20T05:05:59;19.80;89.10
43810;DHT22;29440;48.208;11.162;2023-07-20T05:08:25;19.80;89.30
43810;DHT22;29440;48.208;11.162;2023-07-20T05:10:50;19.80;89.50
43810;DHT22;29440;48.208;11.162;2023-07-20T05:13:16;19.80;89.50
43810;DHT22;29440;48.208;11.162;2023-07-20T05:15:41;19.70;89.40
43810;DHT22;29440;48.208;11.162;2023-07-20T05:18:07;19.70;89.70
43810;DHT22;29440;48.208;11.162;2023-07-20T05:20:34;19.80;89.90
43810;DHT22;29440;48.208;11.162;2023-07-20T05:23:00;19.70;89.50
43810;DHT22;29440;48.208;11.162;2023-07-20T05:25:26;19.70;89.80
43810;DHT22;29440;48.208;11.162;2023-07-20T05:27:52;19.70;90.20
43810;DHT22;29440;48.208;11.162;2023-07-20T05:30:18;19.70;90.30
43810;DHT22;29440;48.208;11.162;2023-07-20T05:32:44;19.70;90.30
43810;DHT22;29440;48.208;11.162;2023-07-20T05:35:12;19.70;90.10
43810;DHT22;29440;48.208;11.162;2023-07-20T05:37:39;19.70;90.20
43810;DHT22;29440;48.208;11.162;2023-07-20T05:40:05;19.70;90.10
43810;DHT22;29440;48.208;11.162;2023-07-20T05:42:33;19.70;90.30
43810;DHT22;29440;48.208;11.162;2023-07-20T05:44:58;19.60;90.20
43810;DHT22;29440;48.208;11.162;2023-07-20T05:47:24;19.60;90.50
43810;DHT22;29440;48.208;11.162;2023-07-20T05:49:49;19.60;90.50
43810;DHT22;29440;48.208;11.162;2023-07-20T05:52:15;19.70;90.70
43810;DHT22;29440;48.208;11.162;2023-07-20T05:54:41;19.70;90.50
43810;DHT22;29440;48.208;11.162;2023-07-20T05:57:07;19.70;90.60
43810;DHT22;29440;48.208;11.162;2023-07-20T05:59:32;19.80;90.80
43810;DHT22;29440;48.208;11.162;2023-07-20T06:01:58;20.00;90.70
43810;DHT22;29440;48.208;11.162;2023-07-20T06:04:23;20.20;90.60
43810;DHT22;29440;48.208;11.162;2023-07-20T06:06:51;20.50;90.40
43810;DHT22;29440;48.208;11.162;2023-07-20T06:09:16;20.80;89.30
43810;DHT22;29440;48.208;11.162;2023-07-20T06:11:42;21.00;88.70
43810;DHT22;29440;48.208;11.162;2023-07-20T06:14:07;21.00;88.40
43810;DHT22;29440;48.208;11.162;2023-07-20T06:16:33;21.20;88.00
43810;DHT22;29440;48.208;11.162;2023-07-20T06:19:00;21.20;87.10
43810;DHT22;29440;48.208;11.162;2023-07-20T06:21:26;21.30;86.80
43810;DHT22;29440;48.208;11.162;2023-07-20T06:23:51;21.30;86.70
43810;DHT22;29440;48.208;11.162;2023-07-20T06:26:17;21.50;87.40
43810;DHT22;29440;48.208;11.162;2023-07-20T06:28:42;21.70;85.80
43810;DHT22;29440;48.208;11.162;2023-07-20T06:31:08;21.80;85.90
43810;DHT22;29440;48.208;11.162;2023-07-20T06:33:33;21.90;85.10
43810;DHT22;29440;48.208;11.162;2023-07-20T06:36:00;21.90;85.10
43810;DHT22;29440;48.208;11.162;2023-07-20T06:38:25;21.80;84.80
43810;DHT22;29440;48.208;11.162;2023-07-20T06:40:51;21.80;86.00
43810;DHT22;29440;48.208;11.162;2023-07-20T06:43:17;22.20;85.20
43810;DHT22;29440;48.208;11.162;2023-07-20T06:45:43;22.60;83.70
43810;DHT22;29440;48.208;11.162;2023-07-20T06:48:08;22.90;83.50
43810;DHT22;29440;48.208;11.162;2023-07-20T06:50:34;23.10;83.20
43810;DHT22;29440;48.208;11.162;2023-07-20T06:53:17;23.40;81.60
43810;DHT22;29440;48.208;11.162;2023-07-20T06:55:43;24.10;79.20
43810;DHT22;29440;48.208;11.162;2023-07-20T06:58:10;25.00;77.70
43810;DHT22;29440;48.208;11.162;2023-07-20T07:00:35;25.80;76.80
43810;DHT22;29440;48.208;11.162;2023-07-20T07:03:01;26.20;74.70
43810;DHT22;29440;48.208;11.162;2023-07-20T07:05:28;26.30;74.20
43810;DHT22;29440;48.208;11.162;2023-07-20T07:07:53;26.30;73.70
43810;DHT22;29440;48.208;11.162;2023-07-20T07:10:19;26.10;73.00
43810;DHT22;29440;48.208;11.162;2023-07-20T07:12:44;26.10;73.10
43810;DHT22;29440;48.208;11.162;2023-07-20T07:15:10;26.00;72.90
43810;DHT22;29440;48.208;11.162;2023-07-20T07:17:36;26.00;73.20
43810;DHT22;29440;48.208;11.162;2023-07-20T07:20:02;25.90;73.20
43810;DHT22;29440;48.208;11.162;2023-07-20T07:22:29;25.70;73.90
43810;DHT22;29440;48.208;11.162;2023-07-20T07:24:54;25.70;74.90
43810;DHT22;29440;48.208;11.162;2023-07-20T07:27:20;25.50;73.00
43810;DHT22;29440;48.208;11.162;2023-07-20T07:29:45;25.50;74.10
43810;DHT22;29440;48.208;11.162;2023-07-20T07:32:12;25.50;75.10
43810;DHT22;29440;48.208;11.162;2023-07-20T07:34:37;25.40;74.70
43810;DHT22;29440;48.208;11.162;2023-07-20T07:37:04;25.00;74.90
43810;DHT22;29440;48.208;11.162;2023-07-20T07:39:30;24.80;73.90
43810;DHT22;29440;48.208;11.162;2023-07-20T07:41:56;24.50;73.90
43810;DHT22;29440;48.208;11.162;2023-07-20T07:44:22;24.40;75.40
43810;DHT22;29440;48.208;11.162;2023-07-20T07:46:48;24.20;75.20
43810;DHT22;29440;48.208;11.162;2023-07-20T07:49:14;24.10;75.60
43810;DHT22;29440;48.208;11.162;2023-07-20T07:51:40;24.00;75.90
43810;DHT22;29440;48.208;11.162;2023-07-20T07:54:05;23.90;74.90
43810;DHT22;29440;48.208;11.162;2023-07-20T07:56:31;23.80;75.70
43810;DHT22;29440;48.208;11.162;2023-07-20T07:58:56;23.60;76.00
43810;DHT22;29440;48.208;11.162;2023-07-20T08:01:22;23.50;76.60
43810;DHT22;29440;48.208;11.162;2023-07-20T08:03:47;23.60;76.10
43810;DHT22;29440;48.208;11.162;2023-07-20T08:06:14;23.60;77.30
43810;DHT22;29440;48.208;11.162;2023-07-20T08:08:39;23.40;77.10
43810;DHT22;29440;48.208;11.162;2023-07-20T08:11:05;23.40;76.40
43810;DHT22;29440;48.208;11.162;2023-07-20T08:13:30;23.50;77.70
43810;DHT22;29440;48.208;11.162;2023-07-20T08:15:57;23.50;77.80
43810;DHT22;29440;48.208;11.162;2023-07-20T08:18:23;23.50;78.60
43810;DHT22;29440;48.208;11.162;2023-07-20T08:20:48;23.80;78.80
43810;DHT22;29440;48.208;11.162;2023-07-20T08:23:15;23.90;78.20
43810;DHT22;29440;48.208;11.162;2023-07-20T08:25:41;24.10;77.30
43810;DHT22;29440;48.208;11.162;2023-07-20T08:28:10;24.30;77.10
43810;DHT22;29440;48.208;11.162;2023-07-20T08:30:46;24.40;77.90
43810;DHT22;29440;48.208;11.162;2023-07-20T08:33:18;24.60;76.10
43810;DHT22;29440;48.208;11.162;2023-07-20T08:35:48;24.80;76.30
43810;DHT22;29440;48.208;11.162;2023-07-20T08:38:14;24.80;75.50
43810;DHT22;29440;48.208;11.162;2023-07-20T08:40:45;24.90;75.50
43810;DHT22;29440;48.208;11.162;2023-07-20T08:43:12;25.00;75.40
43810;DHT22;29440;48.208;11.162;2023-07-20T08:45:39;24.80;74.70
43810;DHT22;29440;48.208;11.162;2023-07-20T08:48:06;24.60;73.00
43810;DHT22;29440;48.208;11.162;2023-07-20T08:50:33;24.50;73.60
43810;DHT22;29440;48.208;11.162;2023-07-20T08:52:59;24.40;73.50
43810;DHT22;29440;48.208;11.162;2023-07-20T08:55:26;24.30;75.20
43810;DHT22;29440;48.208;11.162;2023-07-20T08:57:59;24.30;75.20
43810;DHT22;29440;48.208;11.162;2023-07-20T09:00:26;24.20;74.70
43810;DHT22;29440;48.208;11.162;2023-07-20T09:02:53;24.20;75.30
43810;DHT22;29440;48.208;11.162;2023-07-20T09:05:20;24.10;74.80
43810;DHT22;29440;48.208;11.162;2023-07-20T09:07:46;24.10;74.50
43810;DHT22;29440;48.208;11.162;2023-07-20T09:10:12;24.00;77.20
43810;DHT22;29440;48.208;11.162;2023-07-20T09:12:40;24.00;77.40
43810;DHT22;29440;48.208;11.162;2023-07-20T09:15:07;24.00;77.40
43810;DHT22;29440;48.208;11.162;2023-07-20T09:17:33;24.20;75.10
43810;DHT22;29440;48.208;11.162;2023-07-20T09:20:02;24.20;76.50
43810;DHT22;29440;48.208;11.162;2023-07-20T09:22:32;24.20;76.40
43810;DHT22;29440;48.208;11.162;2023-07-20T09:24:58;24.20;75.40
43810;DHT22;29440;48.208;11.162;2023-07-20T09:27:41;24.30;75.40
43810;DHT22;29440;48.208;11.162;2023-07-20T09:30:07;24.30;74.80
43810;DHT22;29440;48.208;11.162;2023-07-20T09:32:41;24.20;76.00
43810;DHT22;29440;48.208;11.162;2023-07-20T09:35:16;24.20;75.30
43810;DHT22;29440;48.208;11.162;2023-07-20T09:37:45;24.20;74.40
43810;DHT22;29440;48.208;11.162;2023-07-20T09:40:14;24.20;74.40
43810;DHT22;29440;48.208;11.162;2023-07-20T09:42:40;24.30;75.20
43810;DHT22;29440;48.208;11.162;2023-07-20T09:45:07;24.20;75.70
43810;DHT22;29440;48.208;11.162;2023-07-20T09:47:36;24.30;74.70
43810;DHT22;29440;48.208;11.162;2023-07-20T09:50:03;24.40;74.90
43810;DHT22;29440;48.208;11.162;2023-07-20T09:52:29;24.40;74.40
43810;DHT22;29440;48.208;11.162;2023-07-20T09:54:55;24.50;75.00
43810;DHT22;29440;48.208;11.162;2023-07-20T09:57:21;24.60;73.80
43810;DHT22;29440;48.208;11.162;2023-07-20T09:59:47;24.60;73.20
43810;DHT22;29440;48.208;11.162;2023-07-20T10:02:30;24.60;71.20
43810;DHT22;29440;48.208;11.162;2023-07-20T10:05:01;24.70;73.70
43810;DHT22;29440;48.208;11.162;2023-07-20T10:07:27;24.80;74.10
43810;DHT22;29440;48.208;11.162;2023-07-20T10:09:54;24.80;72.60
43810;DHT22;29440;48.208;11.162;2023-07-20T10:12:22;24.80;73.70
43810;DHT22;29440;48.208;11.162;2023-07-20T10:14:59;24.90;73.20
43810;DHT22;29440;48.208;11.162;2023-07-20T10:17:25;24.90;73.50
43810;DHT22;29440;48.208;11.162;2023-07-20T10:19:54;24.90;72.90
43810;DHT22;29440;48.208;11.162;2023-07-20T10:22:30;24.80;74.60
43810;DHT22;29440;48.208;11.162;2023-07-20T10:24:58;24.80;73.60
43810;DHT22;29440;48.208;11.162;2023-07-20T10:27:25;24.90;73.20
43810;DHT22;29440;48.208;11.162;2023-07-20T10:29:51;24.70;73.40
43810;DHT22;29440;48.208;11.162;2023-07-20T10:32:20;24.70;74.20
43810;DHT22;29440;48.208;11.162;2023-07-20T10:34:53;24.80;72.00
43810;DHT22;29440;48.208;11.162;2023-07-20T10:43:00;25.00;73.60
43810;DHT22;29440;48.208;11.162;2023-07-20T10:45:36;25.20;72.90
43810;DHT22;29440;48.208;11.162;2023-07-20T10:48:24;25.30;74.00
43810;DHT22;29440;48.208;11.162;2023-07-20T10:53:35;25.60;71.90
43810;DHT22;29440;48.208;11.162;2023-07-20T10:56:13;25.50;72.00
43810;DHT22;29440;48.208;11.162;2023-07-20T10:58:41;25.50;71.20
43810;DHT22;29440;48.208;11.162;2023-07-20T11:01:13;25.50;72.50
43810;DHT22;29440;48.208;11.162;2023-07-20T11:03:40;25.40;73.60
43810;DHT22;29440;48.208;11.162;2023-07-20T11:06:35;25.50;72.20
43810;DHT22;29440;48.208;11.162;2023-07-20T11:11:34;25.60;71.80
43810;DHT22;29440;48.208;11.162;2023-07-20T11:14:04;25.60;73.40
43810;DHT22;29440;48.208;11.162;2023-07-20T11:16:41;25.70;73.50
43810;DHT22;29440;48.208;11.162;2023-07-20T11:19:23;25.80;71.50
43810;DHT22;29440;48.208;11.162;2023-07-20T11:21:53;25.90;72.00
43810;DHT22;29440;48.208;11.162;2023-07-20T11:24:20;26.00;71.70
43810;DHT22;29440;48.208;11.162;2023-07-20T11:26:48;26.00;72.20
43810;DHT22;29440;48.208;11.162;2023-07-20T11:29:15;26.00;70.90
43810;DHT22;29440;48.208;11.162;2023-07-20T11:31:42;25.90;71.50
43810;DHT22;29440;48.208;11.162;2023-07-20T11:34:13;26.00;72.50
43810;DHT22;29440;48.208;11.162;2023-07-20T11:36:44;25.80;70.10
43810;DHT22;29440;48.208;11.162;2023-07-20T11:39:11;25.90;72.30
43810;DHT22;29440;48.208;11.162;2023-07-20T11:41:38;26.00;71.20
43810;DHT22;29440;48.208;11.162;2023-07-20T11:44:06;26.00;71.90
43810;DHT22;29440;48.208;11.162;2023-07-20T11:46:33;26.30;71.50
43810;DHT22;29440;48.208;11.162;2023-07-20T11:49:00;26.20;70.60
43810;DHT22;29440;48.208;11.162;2023-07-20T11:51:29;26.20;75.00
43810;DHT22;29440;48.208;11.162;2023-07-20T11:53:56;26.40;72.40
43810;DHT22;29440;48.208;11.162;2023-07-20T11:56:24;26.40;70.60
43810;DHT22;29440;48.208;11.162;2023-07-20T11:58:53;26.40;69.80
43810;DHT22;29440;48.208;11.162;2023-07-20T12:01:20;26.30;70.50
43810;DHT22;29440;48.208;11.162;2023-07-20T12:03:48;26.30;69.80
43810;DHT22;29440;48.208;11.162;2023-07-20T12:06:13;26.40;70.00
43810;DHT22;29440;48.208;11.162;2023-07-20T12:08:40;26.30;70.00
43810;DHT22;29440;48.208;11.162;2023-07-20T12:11:07;26.30;69.40
43810;DHT22;29440;48.208;11.162;2023-07-20T12:13:43;26.30;70.00
43810;DHT22;29440;48.208;11.162;2023-07-20T12:16:14;26.10;71.00
43810;DHT22;29440;48.208;11.162;2023-07-20T12:18:41;26.10;70.30
43810;DHT22;29440;48.208;11.162;2023-07-20T12:21:07;26.10;69.80
43810;DHT22;29440;48.208;11.162;2023-07-20T12:23:39;26.10;71.20
43810;DHT22;29440;48.208;11.162;2023-07-20T12:26:08;26.20;70.70
43810;DHT22;29440;48.208;11.162;2023-07-20T12:28:44;26.20;73.50
43810;DHT22;29440;48.208;11.162;2023-07-20T12:31:09;26.50;70.90
43810;DHT22;29440;48.208;11.162;2023-07-20T12:33:37;26.40;70.90
43810;DHT22;29440;48.208;11.162;2023-07-20T12:36:04;26.30;69.80
43810;DHT22;29440;48.208;11.162;2023-07-20T12:38:30;26.30;71.20
43810;DHT22;29440;48.208;11.162;2023-07-20T12:40:56;26.30;71.50
43810;DHT22;29440;48.208;11.162;2023-07-20T12:43:22;26.50;70.70
43810;DHT22;29440;48.208;11.162;2023-07-20T12:45:48;26.50;71.70
43810;DHT22;29440;48.208;11.162;2023-07-20T12:48:14;26.60;70.50
43810;DHT22;29440;48.208;11.162;2023-07-20T12:50:40;26.60;71.10
43810;DHT22;29440;48.208;11.162;2023-07-20T12:53:05;26.90;70.40
43810;DHT22;29440;48.208;11.162;2023-07-20T12:55:31;26.90;69.00
43810;DHT22;29440;48.208;11.162;2023-07-20T12:57:57;26.80;68.70
43810;DHT22;29440;48.208;11.162;2023-07-20T13:00:23;26.90;69.00
43810;DHT22;29440;48.208;11.162;2023-07-20T13:02:49;27.00;70.00
43810;DHT22;29440;48.208;11.162;2023-07-20T13:05:15;27.00;70.00
43810;DHT22;29440;48.208;11.162;2023-07-20T13:07:41;27.00;68.20
43810;DHT22;29440;48.208;11.162;2023-07-20T13:10:08;27.10;68.30
43810;DHT22;29440;48.208;11.162;2023-07-20T13:12:34;27.20;68.10
43810;DHT22;29440;48.208;11.162;2023-07-20T13:15:02;27.30;67.80
43810;DHT22;29440;48.208;11.162;2023-07-20T13:17:37;27.20;67.00
43810;DHT22;29440;48.208;11.162;2023-07-20T13:20:08;27.30;69.70
43810;DHT22;29440;48.208;11.162;2023-07-20T13:22:37;27.40;69.70
43810;DHT22;29440;48.208;11.162;2023-07-20T13:25:04;27.20;67.40
43810;DHT22;29440;48.208;11.162;2023-07-20T13:27:30;27.10;70.10
43810;DHT22;29440;48.208;11.162;2023-07-20T13:29:57;27.10;70.30
43810;DHT22;29440;48.208;11.162;2023-07-20T13:32:24;26.90;69.30
43810;DHT22;29440;48.208;11.162;2023-07-20T13:34:50;26.80;69.70
43810;DHT22;29440;48.208;11.162;2023-07-20T13:37:15;27.00;70.90
43810;DHT22;29440;48.208;11.162;2023-07-20T13:39:41;27.00;71.30
43810;DHT22;29440;48.208;11.162;2023-07-20T13:42:08;26.80;70.40
43810;DHT22;29440;48.208;11.162;2023-07-20T13:44:35;26.90;70.10
43810;DHT22;29440;48.208;11.162;2023-07-20T13:47:01;26.60;69.00
43810;DHT22;29440;48.208;11.162;2023-07-20T13:49:28;26.70;69.80
43810;DHT22;29440;48.208;11.162;2023-07-20T13:51:53;26.60;68.60
43810;DHT22;29440;48.208;11.162;2023-07-20T13:54:19;26.90;69.40
43810;DHT22;29440;48.208;11.162;2023-07-20T13:56:45;26.80;70.50
43810;DHT22;29440;48.208;11.162;2023-07-20T13:59:10;27.00;70.50
43810;DHT22;29440;48.208;11.162;2023-07-20T14:01:36;27.10;70.00
43810;DHT22;29440;48.208;11.162;2023-07-20T14:04:02;27.20;69.90
43810;DHT22;29440;48.208;11.162;2023-07-20T14:06:32;27.40;68.30
43810;DHT22;29440;48.208;11.162;2023-07-20T14:08:58;27.50;68.90
43810;DHT22;29440;48.208;11.162;2023-07-20T14:11:24;27.60;66.60
43810;DHT22;29440;48.208;11.162;2023-07-20T14:13:50;27.70;67.50
43810;DHT22;29440;48.208;11.162;2023-07-20T14:16:18;27.80;67.60
43810;DHT22;29440;48.208;11.162;2023-07-20T14:18:43;27.90;69.00
43810;DHT22;29440;48.208;11.162;2023-07-20T14:21:12;28.00;67.10
43810;DHT22;29440;48.208;11.162;2023-07-20T14:23:38;28.10;66.40
43810;DHT22;29440;48.208;11.162;2023-07-20T14:26:04;28.20;67.50
43810;DHT22;29440;48.208;11.162;2023-07-20T14:28:35;28.10;67.40
43810;DHT22;29440;48.208;11.162;2023-07-20T14:31:00;28.20;67.30
43810;DHT22;29440;48.208;11.162;2023-07-20T14:33:27;28.30;67.10
43810;DHT22;29440;48.208;11.162;2023-07-20T14:35:52;28.30;65.50
43810;DHT22;29440;48.208;11.162;2023-07-20T14:38:18;28.30;65.20
43810;DHT22;29440;48.208;11.162;2023-07-20T14:40:44;28.00;64.40
43810;DHT22;29440;48.208;11.162;2023-07-20T14:43:11;27.80;65.70
43810;DHT22;29440;48.208;11.162;2023-07-20T14:45:36;27.70;66.10
43810;DHT22;29440;48.208;11.162;2023-07-20T14:48:04;27.90;66.60
43810;DHT22;29440;48.208;11.162;2023-07-20T14:50:30;27.80;64.70
43810;DHT22;29440;48.208;11.162;2023-07-20T14:52:56;27.80;64.60
43810;DHT22;29440;48.208;11.162;2023-07-20T14:55:21;27.80;65.20
43810;DHT22;29440;48.208;11.162;2023-07-20T14:57:48;27.90;64.80
43810;DHT22;29440;48.208;11.162;2023-07-20T15:00:14;28.00;65.40
43810;DHT22;29440;48.208;11.162;2023-07-20T15:02:40;28.00;65.90
43810;DHT22;29440;48.208;11.162;2023-07-20T15:05:10;28.00;65.90
43810;DHT22;29440;48.208;11.162;2023-07-20T15:07:37;27.90;65.60
43810;DHT22;29440;48.208;11.162;2023-07-20T15:10:04;28.00;64.10
43810;DHT22;29440;48.208;11.162;2023-07-20T15:12:30;28.00;65.10
43810;DHT22;29440;48.208;11.162;2023-07-20T15:15:07;28.00;65.00
43810;DHT22;29440;48.208;11.162;2023-07-20T15:17:33;28.10;65.00
43810;DHT22;29440;48.208;11.162;2023-07-20T15:20:01;28.20;65.50
43810;DHT22;29440;48.208;11.162;2023-07-20T15:22:33;28.20;64.20
43810;DHT22;29440;48.208;11.162;2023-07-20T15:25:02;28.10;64.10
43810;DHT22;29440;48.208;11.162;2023-07-20T15:27:28;28.00;64.00
43810;DHT22;29440;48.208;11.162;2023-07-20T15:29:54;27.70;63.40
43810;DHT22;29440;48.208;11.162;2023-07-20T15:32:20;27.70;65.00
43810;DHT22;29440;48.208;11.162;2023-07-20T15:34:46;27.60;64.20